El Rito, NM (87530)

12:20 PM MDT on August 20, 2014 (GMT -0600)
Los Alamos | Change Station
CLOSE
Current Station
Airport
Location: Los Alamos,
Elevation: 7172 ft
Nearby Weather Stations

Elev 7172 ft 35.88 °N, 106.27 °W | Updated 5 minutes ago

Overcast
Overcast
71 °F
Feels Like 71 °F
N
5
Wind Variable Wind from NE

Today
High -- | Low -- °F
--% Chance of Precip.
Yesterday
High -- | Low -- °F
Precip. -- in
6:27 AM 7:49 PM
Waning Crescent, 20% visible
Pressure 30.20 in
Visibility 10.0 miles
Clouds Scattered Clouds 6000 ft
Overcast 7000 ft
Dew Point 49 °F
Humidity 45%
Rainfall 0.00 in
Snow Depth Not available.
UV 4 out of 12
Pollen 10.30 out of 12
Air Quality Not available.
Flu Activity Not available.
METAR KLAM 201815Z AUTO 04004KT 10SM SCT060 OVC070 22/09 A3020 RMK AO2 T02160093

More Conditions Fewer Conditions

Pressure 30.20 in
Visibility 10.0 miles
Clouds Scattered Clouds 6000 ft
Overcast 7000 ft
Dew Point 49 °F
Humidity 45%
Rainfall 0.00 in
Snow Depth Not available.
UV 4 out of 12
Pollen 10.30 out of 12
Air Quality Not available.
Flu Activity Not available.
METAR KLAM 201815Z AUTO 04004KT 10SM SCT060 OVC070 22/09 A3020 RMK AO2 T02160093

More Conditions Fewer Conditions

10-Day Weather Forecast

Almanac

Astronomy

Aug. 20, 2014 Rise Set
Actual Time 6:27 AM MDT 7:49 PM MDT
Civil Twilight 6:00 AM MDT 8:16 PM MDT
Nautical Twilight 5:27 AM MDT 8:48 PM MDT
Astronomical Twilight 4:53 AM MDT 9:22 PM MDT
Moon 2:12 AM MDT 4:33 PM MDT
Length of Visible Light 14h 16m
Length of Day
13h 22m
Tomorrow will be 2m 6s shorter.
Waning Crescent, 20% of the Moon is Illuminated
Today
Waning Crescent
Aug 25
New
Sep 2
First Quarter
Sep 8
Full
Sep 15
Last Quarter

Today's Extremes

State Highs State Lows

Community

WunderPhotos

Upload Photos

1,745,704 photos uploaded!

WunderBlogs® & News

Nearby

Snow Depth

Station Depth Elevation
Hopewell 0 in 10000 ft
Quemazon 1 in 9500 ft
Senorita Divide #2 0 in 8600 ft
Gallegos Peak 0 in 9800 ft
Santa Fe 1 in 11445 ft

Earthquake Activity

City Distance Mag. Time & Date
No recent earthquake activity has been reported nearby.
Minimum magnitude displayed is 2.5.

Coastal Water Temperatures

Place Temperature
No Stations Reporting

Nearby Weather Stations